Time;durP1;ratioP1;P1;durP2;ratioP2;P2;SDS_P1;SDS_P2;PMS_P1;PMS_P2;Temp;Humidity;BMP_temperature;BMP_pressure;BME280_temperature;BME280_humidity;BME280_pressure;Samples;Min_cycle;Max_cycle;Signal;HPM_P1;HPM_P2
2023/11/14 00:01:25;;;;;;;57.33;53.35;;;14.20;99.90;;;;;;4988398;28;20042;-73
2023/11/14 00:03:51;;;;;;;59.58;55.55;;;14.20;99.90;;;;;;4992459;28;20065;-72
2023/11/14 00:06:18;;;;;;;55.35;51.17;;;14.20;99.90;;;;;;4994734;28;20069;-73
2023/11/14 00:08:44;;;;;;;59.60;55.13;;;14.20;99.90;;;;;;4993709;28;20050;-73
2023/11/14 00:11:11;;;;;;;86.93;81.28;;;14.20;99.90;;;;;;4982853;28;20038;-73
2023/11/14 00:13:37;;;;;;;54.10;50.80;;;14.20;99.90;;;;;;4986481;28;20030;-73
2023/11/14 00:16:03;;;;;;;96.00;90.18;;;14.30;99.90;;;;;;4994030;28;20038;-72
2023/11/14 00:18:29;;;;;;;59.55;55.45;;;14.30;99.90;;;;;;4993299;28;20395;-73
2023/11/14 00:20:56;;;;;;;153.35;144.60;;;14.20;99.90;;;;;;4993494;28;20050;-73
2023/11/14 00:23:22;;;;;;;172.40;162.95;;;14.20;99.90;;;;;;4991173;28;20058;-73
2023/11/14 00:25:48;;;;;;;226.15;213.25;;;14.20;99.90;;;;;;4979497;28;20046;-73
2023/11/14 00:28:14;;;;;;;283.25;267.95;;;14.20;99.90;;;;;;4993959;28;20045;-73
2023/11/14 00:30:40;;;;;;;250.43;236.40;;;14.20;99.90;;;;;;4992898;28;20050;-72
2023/11/14 00:33:06;;;;;;;224.07;212.05;;;14.20;99.90;;;;;;4994123;28;20038;-72
2023/11/14 00:35:32;;;;;;;210.85;198.95;;;14.20;99.90;;;;;;4992549;28;20038;-73
2023/11/14 00:37:58;;;;;;;168.70;159.52;;;14.20;99.90;;;;;;4964957;28;20050;-73
2023/11/14 00:40:25;;;;;;;196.68;185.85;;;14.20;99.90;;;;;;4975608;28;20043;-73
2023/11/14 00:42:51;;;;;;;153.65;144.77;;;14.20;99.90;;;;;;4985532;28;20051;-72
2023/11/14 00:45:18;;;;;;;157.48;148.55;;;14.20;99.90;;;;;;4975188;28;20395;-73
2023/11/14 00:47:44;;;;;;;137.57;129.75;;;14.30;99.90;;;;;;4992722;28;20034;-73
2023/11/14 00:50:11;;;;;;;128.25;120.55;;;14.20;99.90;;;;;;4992975;28;20130;-73
2023/11/14 00:52:37;;;;;;;123.80;116.35;;;14.20;99.90;;;;;;4980844;28;20049;-72
2023/11/14 00:55:05;;;;;;;86.70;81.13;;;14.20;99.90;;;;;;4993838;28;20042;-73
2023/11/14 00:57:31;;;;;;;84.32;79.07;;;14.20;99.90;;;;;;4993257;28;20038;-73
2023/11/14 00:59:58;;;;;;;68.68;64.00;;;14.20;99.90;;;;;;4993404;28;20038;-72
2023/11/14 01:02:24;;;;;;;68.13;63.60;;;14.20;99.90;;;;;;4992123;28;20402;-72
2023/11/14 01:04:50;;;;;;;74.70;69.88;;;14.20;99.90;;;;;;4993422;28;20050;-73
2023/11/14 01:07:17;;;;;;;60.33;56.25;;;14.20;99.90;;;;;;4993495;28;20391;-72
2023/11/14 01:09:43;;;;;;;103.13;96.43;;;14.20;99.90;;;;;;4993676;28;20415;-73
2023/11/14 01:12:09;;;;;;;96.85;90.25;;;14.30;99.90;;;;;;4991710;28;20035;-73
2023/11/14 01:14:35;;;;;;;70.30;65.13;;;14.30;99.90;;;;;;4994111;28;20398;-73
2023/11/14 01:17:01;;;;;;;80.53;75.35;;;14.30;99.90;;;;;;5007841;28;20042;-74
2023/11/14 01:19:28;;;;;;;99.82;93.55;;;14.30;99.90;;;;;;4992477;28;20026;-73
2023/11/14 01:21:54;;;;;;;90.60;84.97;;;14.20;99.90;;;;;;4987645;28;20050;-73
2023/11/14 01:24:20;;;;;;;103.68;97.78;;;14.30;99.90;;;;;;4992971;28;20049;-73
2023/11/14 01:26:46;;;;;;;77.20;71.70;;;14.20;99.90;;;;;;4993265;28;20038;-72
2023/11/14 01:29:13;;;;;;;72.32;67.38;;;14.20;99.90;;;;;;4993333;28;20047;-72
2023/11/14 01:31:39;;;;;;;61.10;56.60;;;14.20;99.90;;;;;;4993083;28;20045;-73
2023/11/14 01:34:05;;;;;;;80.95;75.63;;;14.20;99.90;;;;;;4992268;28;20579;-73
2023/11/14 01:36:31;;;;;;;84.35;78.57;;;14.20;99.90;;;;;;4989612;28;20039;-73
2023/11/14 01:38:57;;;;;;;79.45;73.82;;;14.20;99.90;;;;;;4992014;28;20034;-72
2023/11/14 01:41:23;;;;;;;65.65;60.80;;;14.20;99.90;;;;;;4992201;28;20049;-72
2023/11/14 01:43:49;;;;;;;58.10;53.95;;;14.20;99.90;;;;;;4984190;28;20046;-73
2023/11/14 01:46:16;;;;;;;46.40;42.50;;;14.20;99.90;;;;;;4992814;28;20097;-73
2023/11/14 01:48:45;;;;;;;50.28;46.13;;;14.20;99.90;;;;;;4991002;28;20042;-73
2023/11/14 01:51:11;;;;;;;53.25;48.75;;;14.20;99.90;;;;;;4984718;28;20050;-73
2023/11/14 01:53:37;;;;;;;56.58;52.53;;;14.20;99.90;;;;;;4990642;28;20026;-73
2023/11/14 01:56:04;;;;;;;60.35;56.22;;;14.20;99.90;;;;;;4991447;28;20033;-73
2023/11/14 01:58:30;;;;;;;61.38;56.97;;;14.20;99.90;;;;;;4991476;28;20045;-73
2023/11/14 02:00:56;;;;;;;55.22;51.13;;;14.20;99.90;;;;;;4990577;28;20034;-73
2023/11/14 02:03:22;;;;;;;62.50;57.47;;;14.20;99.90;;;;;;4991028;28;20053;-73
2023/11/14 02:05:48;;;;;;;58.85;54.55;;;14.20;99.90;;;;;;4991725;28;20037;-73
2023/11/14 02:08:16;;;;;;;50.22;45.90;;;14.20;99.90;;;;;;4974920;28;20043;-73
2023/11/14 02:10:42;;;;;;;50.92;46.85;;;14.20;99.90;;;;;;4991702;28;20042;-73
2023/11/14 02:13:08;;;;;;;52.20;47.50;;;14.30;99.90;;;;;;4988879;28;20041;-72
2023/11/14 02:15:34;;;;;;;45.05;41.30;;;14.30;99.90;;;;;;4981943;28;20053;-73
2023/11/14 02:18:00;;;;;;;43.65;40.00;;;14.30;99.90;;;;;;4993031;28;20351;-72
2023/11/14 02:20:26;;;;;;;59.63;54.70;;;14.30;99.90;;;;;;4991280;28;20065;-73
2023/11/14 02:22:53;;;;;;;55.85;51.90;;;14.30;99.90;;;;;;4991613;28;20089;-74
2023/11/14 02:25:19;;;;;;;86.50;80.93;;;14.30;99.90;;;;;;4981071;28;20046;-72
2023/11/14 02:27:46;;;;;;;77.10;71.85;;;14.30;99.90;;;;;;4982835;28;20034;-73
2023/11/14 02:30:13;;;;;;;98.90;92.95;;;14.30;99.90;;;;;;4986780;28;20046;-73
2023/11/14 02:32:39;;;;;;;61.88;57.28;;;14.40;99.90;;;;;;4991860;28;20038;-73
2023/11/14 02:35:05;;;;;;;81.97;76.90;;;14.50;99.90;;;;;;4991947;28;20415;-73
2023/11/14 02:37:31;;;;;;;88.10;82.40;;;14.40;99.90;;;;;;4988645;28;20475;-73
2023/11/14 02:39:57;;;;;;;72.13;67.28;;;14.40;99.90;;;;;;4991775;28;20026;-72
2023/11/14 02:42:23;;;;;;;53.97;49.70;;;14.40;99.90;;;;;;4991797;28;20053;-73
2023/11/14 02:44:49;;;;;;;57.88;53.65;;;14.50;99.90;;;;;;4987439;28;20053;-73
2023/11/14 02:47:17;;;;;;;65.30;60.60;;;14.50;99.90;;;;;;4988902;28;20035;-73
2023/11/14 02:49:50;;;;;;;61.47;57.17;;;14.50;99.90;;;;;;4990842;28;20396;-72
2023/11/14 02:52:16;;;;;;;73.07;67.82;;;14.60;99.90;;;;;;4988332;28;20522;-73
2023/11/14 02:54:42;;;;;;;77.05;72.07;;;14.50;99.90;;;;;;4985292;28;20034;-73
2023/11/14 02:57:12;;;;;;;79.47;74.20;;;14.50;99.90;;;;;;4995718;28;20071;-73
2023/11/14 02:59:38;;;;;;;82.68;76.82;;;14.50;99.90;;;;;;4994477;28;20487;-74
2023/11/14 03:02:04;;;;;;;56.72;52.60;;;14.50;99.90;;;;;;4994764;28;20038;-73
2023/11/14 03:04:30;;;;;;;63.20;58.78;;;14.50;99.90;;;;;;4995549;28;20050;-73
2023/11/14 03:06:56;;;;;;;59.78;55.22;;;14.60;99.90;;;;;;4996089;28;20038;-73
2023/11/14 03:09:22;;;;;;;62.05;57.72;;;14.60;99.90;;;;;;4995468;28;20038;-73
2023/11/14 03:11:49;;;;;;;65.63;61.20;;;14.60;99.90;;;;;;4994495;28;20027;-73
2023/11/14 03:14:15;;;;;;;71.47;66.50;;;14.60;99.90;;;;;;4995256;28;20053;-73
2023/11/14 03:16:41;;;;;;;69.45;64.20;;;14.60;99.90;;;;;;4986283;28;20054;-73
2023/11/14 03:19:07;;;;;;;69.93;65.40;;;14.60;99.90;;;;;;4996597;28;20038;-73
2023/11/14 03:21:33;;;;;;;77.75;71.85;;;14.60;99.90;;;;;;4993160;28;20041;-73
2023/11/14 03:23:59;;;;;;;85.43;79.80;;;14.60;99.90;;;;;;4993462;28;20054;-73
2023/11/14 03:26:32;;;;;;;69.78;64.40;;;14.60;99.90;;;;;;4994709;28;20058;-73
2023/11/14 03:28:58;;;;;;;79.40;73.88;;;14.70;99.90;;;;;;4995459;28;20391;-73
2023/11/14 03:31:24;;;;;;;94.03;87.90;;;14.60;99.90;;;;;;4994757;28;20035;-73
2023/11/14 03:33:50;;;;;;;90.88;83.75;;;14.70;99.90;;;;;;4995925;28;20045;-73
2023/11/14 03:36:16;;;;;;;90.40;84.38;;;14.70;99.90;;;;;;4992215;28;20042;-73
2023/11/14 03:38:42;;;;;;;90.07;84.10;;;14.70;99.90;;;;;;4995352;28;20037;-73
2023/11/14 03:41:08;;;;;;;100.97;94.68;;;14.70;99.90;;;;;;4995090;28;20093;-73
2023/11/14 03:43:34;;;;;;;95.88;89.20;;;14.70;99.90;;;;;;4995588;28;20725;-73
2023/11/14 03:46:01;;;;;;;111.93;104.20;;;14.70;99.90;;;;;;4993580;28;20352;-73
2023/11/14 03:48:27;;;;;;;91.93;85.90;;;14.70;99.90;;;;;;4994543;28;20394;-73
2023/11/14 03:50:53;;;;;;;117.72;110.93;;;14.70;99.90;;;;;;4993697;28;20041;-73
2023/11/14 03:53:19;;;;;;;131.73;123.80;;;14.70;99.90;;;;;;4994164;28;20038;-73
2023/11/14 03:55:45;;;;;;;137.27;129.20;;;14.70;99.90;;;;;;4995388;28;20022;-73
2023/11/14 03:58:11;;;;;;;147.38;138.25;;;14.70;99.90;;;;;;4994884;28;20049;-73
2023/11/14 04:00:37;;;;;;;102.65;96.25;;;14.70;99.90;;;;;;4994294;28;20046;-72
2023/11/14 04:03:03;;;;;;;113.57;105.43;;;14.70;99.90;;;;;;4995051;28;20387;-73
2023/11/14 04:05:30;;;;;;;121.05;113.97;;;14.70;99.90;;;;;;4993888;28;20046;-73
2023/11/14 04:07:56;;;;;;;134.93;126.50;;;14.70;99.90;;;;;;4993893;28;20038;-73
2023/11/14 04:10:22;;;;;;;133.57;125.65;;;14.70;99.90;;;;;;4994950;28;20479;-73
2023/11/14 04:12:48;;;;;;;133.43;124.60;;;14.70;99.90;;;;;;4985382;28;20391;-73
2023/11/14 04:15:15;;;;;;;130.07;122.13;;;14.70;99.90;;;;;;4988759;28;20053;-72
2023/11/14 04:17:41;;;;;;;97.20;91.45;;;14.70;99.90;;;;;;4992740;28;20472;-73
2023/11/14 04:20:07;;;;;;;108.25;101.93;;;14.80;99.90;;;;;;4987726;28;20026;-74
2023/11/14 04:22:33;;;;;;;104.28;96.93;;;14.80;99.90;;;;;;4987983;28;20034;-73
2023/11/14 04:24:59;;;;;;;97.90;91.72;;;14.80;99.90;;;;;;4986686;28;20058;-73
2023/11/14 04:27:26;;;;;;;97.05;90.70;;;14.80;99.90;;;;;;4980732;28;20507;-73
2023/11/14 04:29:52;;;;;;;98.82;92.47;;;14.80;99.90;;;;;;4991049;28;20046;-73
2023/11/14 04:32:19;;;;;;;117.45;110.13;;;14.80;99.90;;;;;;4990908;28;20030;-73
2023/11/14 04:34:45;;;;;;;110.93;104.03;;;14.70;99.90;;;;;;4992225;28;20047;-73
2023/11/14 04:37:11;;;;;;;104.93;98.00;;;14.70;99.90;;;;;;4990281;28;20038;-73
2023/11/14 04:39:37;;;;;;;110.55;103.18;;;14.70;99.90;;;;;;4994060;28;20035;-74
2023/11/14 04:42:05;;;;;;;160.73;151.25;;;14.70;99.90;;;;;;4994304;28;20031;-73
2023/11/14 04:44:32;;;;;;;165.13;155.52;;;14.70;99.90;;;;;;4993551;28;20058;-73
2023/11/14 04:46:58;;;;;;;177.57;166.90;;;14.70;99.90;;;;;;4992820;28;20479;-73
2023/11/14 04:49:25;;;;;;;140.82;131.82;;;14.70;99.90;;;;;;4993014;28;20050;-73
2023/11/14 04:51:51;;;;;;;150.68;140.82;;;14.70;99.90;;;;;;4993142;28;20030;-73
2023/11/14 04:54:17;;;;;;;136.63;127.85;;;14.70;99.90;;;;;;4987324;28;20055;-73
2023/11/14 04:56:43;;;;;;;172.52;162.15;;;14.60;99.90;;;;;;4994052;28;20034;-73
2023/11/14 04:59:09;;;;;;;172.48;162.45;;;14.60;99.90;;;;;;4993757;28;20045;-73
2023/11/14 05:01:35;;;;;;;150.85;141.25;;;14.60;99.90;;;;;;4992055;28;20042;-73
2023/11/14 05:04:01;;;;;;;154.95;145.65;;;14.60;99.90;;;;;;4993256;28;20031;-73
2023/11/14 05:06:31;;;;;;;128.20;119.68;;;14.60;99.90;;;;;;4993893;28;20045;-73
2023/11/14 05:08:57;;;;;;;101.97;95.20;;;14.70;99.90;;;;;;4993767;28;20395;-73
2023/11/14 05:11:23;;;;;;;99.88;93.18;;;14.70;99.90;;;;;;4993711;28;20038;-73
2023/11/14 05:13:49;;;;;;;102.95;95.43;;;14.70;99.90;;;;;;4993130;28;20391;-73
2023/11/14 05:16:15;;;;;;;100.55;93.93;;;14.60;99.90;;;;;;4992522;28;20038;-73
2023/11/14 05:18:44;;;;;;;119.68;111.82;;;14.60;99.90;;;;;;4993037;28;20034;-73
2023/11/14 05:21:10;;;;;;;98.85;92.05;;;14.60;99.90;;;;;;4990389;28;20046;-73
2023/11/14 05:23:36;;;;;;;118.97;110.93;;;14.60;99.90;;;;;;4978900;28;20038;-72
2023/11/14 05:26:02;;;;;;;89.82;83.28;;;14.60;99.90;;;;;;4981059;28;20057;-73
2023/11/14 05:28:28;;;;;;;107.82;85.63;;;14.60;99.90;;;;;;4993746;28;20039;-73
2023/11/14 05:30:54;;;;;;;112.53;104.35;;;14.60;99.90;;;;;;4993173;28;20045;-73
2023/11/14 05:33:20;;;;;;;125.88;117.32;;;14.60;99.90;;;;;;4993293;28;20026;-73
2023/11/14 05:35:47;;;;;;;122.60;113.78;;;14.70;99.90;;;;;;4991864;28;20034;-73
2023/11/14 05:38:14;;;;;;;125.03;116.50;;;14.70;99.90;;;;;;4989151;28;20038;-73
2023/11/14 05:40:40;;;;;;;139.27;129.52;;;14.70;99.90;;;;;;4992340;28;20042;-72
2023/11/14 05:43:07;;;;;;;129.38;120.38;;;14.70;99.90;;;;;;4982671;28;20038;-73
2023/11/14 05:45:33;;;;;;;137.43;128.27;;;14.70;99.90;;;;;;4989111;28;20053;-73
2023/11/14 05:47:59;;;;;;;127.00;118.63;;;14.70;99.90;;;;;;4987196;28;20034;-73
2023/11/14 05:50:25;;;;;;;118.93;110.72;;;14.70;99.90;;;;;;4993028;28;20034;-73
2023/11/14 05:52:51;;;;;;;118.75;109.53;;;14.70;99.90;;;;;;4992991;28;20030;-73
2023/11/14 05:55:17;;;;;;;109.22;101.05;;;14.70;99.90;;;;;;4976025;28;20030;-72
2023/11/14 05:57:43;;;;;;;104.68;96.97;;;14.70;99.90;;;;;;4993356;28;20049;-73
2023/11/14 06:00:13;;;;;;;120.65;111.57;;;14.60;99.90;;;;;;4992729;28;20037;-72
2023/11/14 06:02:39;;;;;;;122.45;113.72;;;14.60;99.90;;;;;;5000114;28;20043;-73
2023/11/14 06:05:05;;;;;;;107.05;99.32;;;14.60;99.90;;;;;;4973713;28;20392;-74
2023/11/14 06:07:32;;;;;;;93.40;85.75;;;14.70;99.90;;;;;;5012312;28;20049;-73
2023/11/14 06:09:58;;;;;;;100.95;93.20;;;14.70;99.90;;;;;;5012551;28;20511;-72
2023/11/14 06:12:24;;;;;;;123.45;114.38;;;14.70;99.90;;;;;;5009624;28;20036;-73
2023/11/14 06:14:50;;;;;;;116.65;108.13;;;14.70;99.90;;;;;;4992969;28;20475;-73
2023/11/14 06:17:16;;;;;;;121.75;113.03;;;14.70;99.90;;;;;;5004732;28;20034;-73
2023/11/14 06:19:42;;;;;;;150.38;140.27;;;14.80;99.90;;;;;;4984479;28;20637;-73
2023/11/14 06:22:09;;;;;;;134.63;125.75;;;14.80;99.90;;;;;;5004853;28;20034;-73
2023/11/14 06:24:35;;;;;;;131.48;122.35;;;14.80;99.90;;;;;;4981696;28;20055;-73
2023/11/14 06:27:01;;;;;;;132.43;122.70;;;14.70;99.90;;;;;;4990599;28;20475;-73
2023/11/14 06:29:27;;;;;;;120.65;112.07;;;14.70;99.90;;;;;;4972865;28;20067;-73
2023/11/14 06:31:53;;;;;;;130.18;121.10;;;14.70;99.90;;;;;;4985628;28;20038;-73
2023/11/14 06:34:21;;;;;;;131.90;122.70;;;14.70;99.90;;;;;;4992878;28;20046;-73
2023/11/14 06:36:47;;;;;;;127.68;118.80;;;14.70;99.90;;;;;;4987208;28;20172;-73
2023/11/14 06:39:13;;;;;;;133.48;124.35;;;14.70;99.90;;;;;;4991821;28;20041;-72
2023/11/14 06:41:39;;;;;;;119.80;111.78;;;14.70;99.90;;;;;;4992469;28;20034;-73
2023/11/14 06:44:05;;;;;;;110.40;102.55;;;14.70;99.90;;;;;;4992419;28;20026;-73
2023/11/14 06:46:33;;;;;;;117.13;108.97;;;14.70;99.90;;;;;;4991409;28;20035;-73
2023/11/14 06:48:59;;;;;;;114.47;106.22;;;14.70;99.90;;;;;;4992134;28;20483;-72
2023/11/14 06:51:25;;;;;;;99.28;91.30;;;14.80;99.90;;;;;;4992386;28;20035;-72
2023/11/14 06:53:51;;;;;;;118.28;109.70;;;14.80;99.90;;;;;;4992398;28;20482;-72
2023/11/14 06:56:19;;;;;;;108.32;99.68;;;14.70;99.90;;;;;;4992507;28;20030;-72
2023/11/14 06:58:45;;;;;;;109.43;102.00;;;14.80;99.90;;;;;;4992413;28;20046;-73
2023/11/14 07:01:13;;;;;;;129.60;120.43;;;14.80;99.90;;;;;;4991688;28;20434;-73
2023/11/14 07:03:39;;;;;;;114.93;106.65;;;14.80;99.90;;;;;;4992837;28;20073;-73
2023/11/14 07:06:06;;;;;;;172.98;161.73;;;14.80;99.90;;;;;;4992234;28;20073;-73
2023/11/14 07:08:32;;;;;;;196.90;183.23;;;14.80;99.90;;;;;;4992612;28;20038;-73
2023/11/14 07:10:58;;;;;;;169.95;158.05;;;14.80;99.90;;;;;;4980610;28;20049;-73
2023/11/14 07:13:24;;;;;;;205.18;192.25;;;14.80;99.90;;;;;;4975942;28;20400;-72
2023/11/14 07:15:50;;;;;;;221.68;207.45;;;14.80;99.90;;;;;;4972095;28;20035;-73
2023/11/14 07:18:16;;;;;;;141.35;131.77;;;14.80;99.90;;;;;;4980770;28;20043;-73
2023/11/14 07:20:42;;;;;;;137.20;127.63;;;14.80;99.90;;;;;;4991508;28;20030;-72
2023/11/14 07:23:08;;;;;;;119.25;110.93;;;14.80;99.90;;;;;;4992505;28;20401;-73
2023/11/14 07:25:38;;;;;;;101.15;93.82;;;14.80;99.90;;;;;;4991836;28;20050;-73
2023/11/14 07:28:04;;;;;;;152.63;142.77;;;14.80;99.90;;;;;;4992301;28;20049;-72
2023/11/14 07:30:32;;;;;;;156.75;146.23;;;14.80;99.90;;;;;;4989142;28;20034;-73
2023/11/14 07:32:58;;;;;;;193.90;181.10;;;14.80;99.90;;;;;;4990974;28;20066;-73
2023/11/14 07:35:26;;;;;;;137.57;128.52;;;14.70;99.90;;;;;;4992020;28;20383;-73
2023/11/14 07:37:52;;;;;;;169.38;158.63;;;14.70;99.90;;;;;;4992203;28;20046;-72
2023/11/14 07:40:19;;;;;;;151.70;142.48;;;14.70;99.90;;;;;;4987233;28;20038;-73
2023/11/14 07:42:46;;;;;;;144.98;136.10;;;14.70;99.90;;;;;;4994243;28;20114;-73
2023/11/14 07:45:12;;;;;;;98.28;91.30;;;14.70;99.90;;;;;;4995018;28;20045;-72
2023/11/14 07:47:38;;;;;;;89.03;82.18;;;14.70;99.90;;;;;;4995603;28;20045;-72
2023/11/14 07:50:05;;;;;;;137.07;128.30;;;14.70;99.90;;;;;;4994856;28;20030;-72
2023/11/14 07:52:31;;;;;;;147.80;138.15;;;14.70;99.90;;;;;;4994496;28;20078;-72
2023/11/14 07:55:02;;;;;;;141.82;132.93;;;14.80;99.90;;;;;;4993745;28;20034;-73
2023/11/14 07:57:32;;;;;;;;;;;14.80;99.90;;;;;;4995300;28;20050;-73
2023/11/14 08:00:01;;;;;;;133.20;124.95;;;14.80;99.90;;;;;;4995436;28;19909;-72
2023/11/14 08:02:27;;;;;;;136.73;127.88;;;14.80;99.90;;;;;;4989631;28;20038;-73
2023/11/14 08:04:53;;;;;;;133.45;124.75;;;14.80;99.90;;;;;;4975941;28;20047;-73
2023/11/14 08:07:19;;;;;;;134.70;125.95;;;14.80;99.90;;;;;;4982240;28;20475;-72
2023/11/14 08:09:45;;;;;;;103.40;96.05;;;14.80;99.90;;;;;;4995499;28;20046;-73
2023/11/14 08:12:11;;;;;;;121.30;113.47;;;14.70;99.90;;;;;;4993061;28;20051;-73
2023/11/14 08:14:40;;;;;;;57.42;53.20;;;14.80;99.90;;;;;;4983724;28;20030;-72
2023/11/14 08:17:06;;;;;;;49.05;44.70;;;14.70;99.90;;;;;;5010243;28;20038;-73
2023/11/14 08:19:32;;;;;;;50.72;46.47;;;14.70;99.90;;;;;;5003003;28;20411;-72
2023/11/14 08:22:04;;;;;;;42.92;38.70;;;14.70;99.90;;;;;;4991964;28;20042;-73
2023/11/14 08:24:30;;;;;;;47.08;42.65;;;14.60;99.90;;;;;;4986519;28;20047;-73
2023/11/14 08:26:57;;;;;;;60.60;55.22;;;14.60;99.90;;;;;;4983942;28;20411;-73
2023/11/14 08:29:23;;;;;;;47.50;43.58;;;14.60;99.90;;;;;;4998610;28;20526;-73
2023/11/14 08:31:49;;;;;;;57.10;52.47;;;14.60;99.90;;;;;;5013645;28;20037;-72
2023/11/14 08:34:15;;;;;;;58.60;54.08;;;14.60;99.90;;;;;;4999036;28;20031;-73
2023/11/14 08:36:42;;;;;;;52.17;47.95;;;14.60;99.90;;;;;;4994106;28;20037;-71
2023/11/14 08:39:13;;;;;;;62.10;57.22;;;14.60;99.90;;;;;;4994690;28;20046;-73
2023/11/14 08:41:40;;;;;;;165.13;154.77;;;14.60;99.90;;;;;;4992556;28;20525;-73
2023/11/14 08:44:07;;;;;;;110.72;103.38;;;14.60;99.90;;;;;;4994407;28;20475;-73
2023/11/14 08:46:34;;;;;;;110.63;103.25;;;14.50;99.90;;;;;;4993849;28;20050;-73
2023/11/14 08:49:06;;;;;;;135.10;126.70;;;14.50;99.90;;;;;;4993955;28;20384;-73
2023/11/14 08:51:35;;;;;;;136.32;128.55;;;14.50;99.90;;;;;;4993934;28;20081;-72
2023/11/14 08:54:01;;;;;;;125.38;117.03;;;14.50;99.90;;;;;;4984310;28;20030;-72
2023/11/14 08:56:29;;;;;;;154.70;145.35;;;14.50;99.90;;;;;;4994817;28;20038;-71
2023/11/14 08:58:56;;;;;;;132.48;124.35;;;14.50;99.90;;;;;;5012731;28;20053;-72
2023/11/14 09:01:24;;;;;;;97.15;90.22;;;14.50;99.90;;;;;;4993975;28;20042;-73
2023/11/14 09:03:50;;;;;;;134.55;125.65;;;14.50;99.90;;;;;;4991185;28;20375;-73
2023/11/14 09:06:16;;;;;;;98.63;92.40;;;14.50;99.90;;;;;;4983533;28;20050;-72
2023/11/14 09:08:42;;;;;;;129.10;121.25;;;14.50;99.90;;;;;;4993527;28;20372;-73
2023/11/14 09:11:09;;;;;;;197.27;186.05;;;14.60;99.90;;;;;;4990659;28;20030;-73
2023/11/14 09:13:35;;;;;;;165.05;155.30;;;14.50;99.90;;;;;;4991455;28;20479;-73
2023/11/14 09:16:02;;;;;;;70.60;66.15;;;14.50;99.90;;;;;;5000537;28;20038;-73
2023/11/14 09:18:28;;;;;;;69.25;64.82;;;14.50;99.90;;;;;;5012143;28;20398;-74
2023/11/14 09:20:55;;;;;;;97.78;91.60;;;14.50;99.90;;;;;;5012975;28;20033;-74
2023/11/14 09:23:21;;;;;;;69.95;65.30;;;14.50;99.90;;;;;;5008160;28;20034;-73
2023/11/14 09:25:49;;;;;;;117.93;111.35;;;14.50;99.90;;;;;;4992952;28;20065;-73
2023/11/14 09:28:15;;;;;;;201.20;189.98;;;14.50;99.90;;;;;;4981224;28;20039;-73
2023/11/14 09:30:41;;;;;;;304.33;287.25;;;14.50;99.90;;;;;;4986006;28;20043;-73
2023/11/14 09:33:07;;;;;;;246.45;233.07;;;14.50;99.90;;;;;;4993875;28;20034;-73
2023/11/14 09:35:33;;;;;;;181.45;171.15;;;14.50;99.90;;;;;;4989811;28;20042;-73
2023/11/14 09:37:59;;;;;;;154.93;146.45;;;14.50;99.90;;;;;;4991940;28;20038;-73
2023/11/14 09:40:25;;;;;;;104.82;98.47;;;14.60;99.90;;;;;;4992920;28;20030;-73
2023/11/14 09:42:52;;;;;;;106.93;101.05;;;14.50;99.90;;;;;;4992464;28;20487;-73
2023/11/14 09:45:18;;;;;;;127.38;120.00;;;14.50;99.90;;;;;;4986033;28;20042;-72
2023/11/14 09:47:45;;;;;;;112.07;105.85;;;14.60;99.90;;;;;;4992123;28;20042;-73
2023/11/14 09:50:12;;;;;;;97.18;91.53;;;14.50;99.90;;;;;;4993009;28;20057;-74
2023/11/14 09:52:38;;;;;;;108.50;102.30;;;14.60;99.90;;;;;;4993424;28;20061;-73
2023/11/14 09:55:05;;;;;;;111.55;105.05;;;14.50;99.90;;;;;;4991517;28;20089;-73
2023/11/14 09:57:33;;;;;;;115.68;109.45;;;14.60;99.90;;;;;;4992769;28;20042;-73
2023/11/14 09:59:59;;;;;;;112.85;106.85;;;14.60;99.90;;;;;;4993111;28;20050;-72
2023/11/14 10:02:26;;;;;;;115.18;108.55;;;14.60;99.90;;;;;;4971230;28;20066;-73
2023/11/14 10:04:52;;;;;;;121.25;114.28;;;14.60;99.90;;;;;;4973628;28;20031;-72
2023/11/14 10:07:20;;;;;;;126.63;119.65;;;14.60;99.90;;;;;;5002458;28;20038;-73
2023/11/14 10:09:49;;;;;;;117.28;110.72;;;14.60;99.90;;;;;;4973432;28;20384;-73
2023/11/14 10:12:34;;;;;;;123.28;116.55;;;14.60;99.90;;;;;;4987232;28;20046;-73
2023/11/14 10:15:00;;;;;;;123.57;116.80;;;14.70;99.90;;;;;;4983748;28;20039;-73
2023/11/14 10:17:38;;;;;;;117.18;111.03;;;14.70;99.90;;;;;;4997669;28;20038;-73
2023/11/14 10:20:07;;;;;;;162.75;154.25;;;14.70;99.90;;;;;;4991879;28;20391;-73
2023/11/14 10:22:34;;;;;;;120.20;113.75;;;14.70;99.90;;;;;;4992520;28;20058;-72
2023/11/14 10:25:01;;;;;;;187.85;178.02;;;14.70;99.90;;;;;;4990850;28;20058;-73
2023/11/14 10:27:33;;;;;;;194.63;183.95;;;14.80;99.90;;;;;;4982957;28;20038;-73
2023/11/14 10:29:59;;;;;;;165.98;157.32;;;14.80;99.90;;;;;;4975319;28;20058;-72
2023/11/14 10:32:25;;;;;;;185.20;175.48;;;14.80;99.90;;;;;;4990008;28;20488;-72
2023/11/14 10:34:51;;;;;;;178.27;168.65;;;14.80;99.90;;;;;;4991138;28;20041;-72
2023/11/14 10:37:31;;;;;;;177.85;168.52;;;14.80;99.90;;;;;;4991392;28;20041;-72
2023/11/14 10:39:57;;;;;;;147.98;139.70;;;14.80;99.90;;;;;;4991087;28;20034;-72
2023/11/14 10:42:24;;;;;;;112.18;105.80;;;14.90;99.90;;;;;;4992473;28;20042;-71
2023/11/14 10:45:00;;;;;;;115.85;109.70;;;14.90;99.90;;;;;;4991775;28;20053;-73
2023/11/14 10:47:39;;;;;;;104.38;98.20;;;14.90;99.90;;;;;;4997734;28;20491;-72
2023/11/14 10:50:08;;;;;;;108.43;102.55;;;15.00;99.90;;;;;;4992099;28;20030;-72
2023/11/14 10:52:37;;;;;;;117.13;110.10;;;15.00;99.90;;;;;;4990311;28;20034;-71
2023/11/14 10:55:06;;;;;;;103.00;97.38;;;15.00;99.90;;;;;;4989327;28;20041;-72
2023/11/14 10:57:33;;;;;;;118.22;111.47;;;15.00;99.90;;;;;;5007357;28;20034;-72
2023/11/14 10:59:59;;;;;;;102.40;96.22;;;15.10;99.90;;;;;;4991511;28;20053;-71
2023/11/14 11:02:32;;;;;;;93.85;88.50;;;15.10;99.90;;;;;;4990329;28;20057;-72
2023/11/14 11:05:04;;;;;;;93.15;87.78;;;15.20;99.90;;;;;;4992345;28;20048;-71
2023/11/14 11:07:31;;;;;;;95.10;89.15;;;15.20;99.90;;;;;;4990746;28;20046;-71
2023/11/14 11:09:58;;;;;;;114.00;107.70;;;15.20;99.90;;;;;;4992805;28;20050;-73
2023/11/14 11:12:25;;;;;;;121.45;114.88;;;15.20;99.90;;;;;;4992264;28;20061;-73
2023/11/14 11:14:51;;;;;;;119.22;113.03;;;15.20;99.90;;;;;;4992598;28;20383;-73
2023/11/14 11:17:38;;;;;;;106.97;101.03;;;15.30;99.90;;;;;;4994111;28;20039;-73
2023/11/14 11:20:06;;;;;;;96.53;90.93;;;15.30;99.90;;;;;;4996298;28;20057;-73
2023/11/14 11:23:08;;;;;;;109.35;103.05;;;15.30;99.90;;;;;;4994993;28;20041;-73
2023/11/14 11:25:37;;;;;;;92.25;87.07;;;15.40;99.90;;;;;;4986412;28;20049;-73
2023/11/14 11:28:21;;;;;;;102.97;97.50;;;15.40;99.90;;;;;;4988881;28;20075;-73
2023/11/14 11:31:06;;;;;;;102.70;96.65;;;15.40;99.90;;;;;;4988489;28;20038;-73
2023/11/14 11:33:33;;;;;;;124.45;117.22;;;15.40;99.90;;;;;;4986565;28;20034;-73
2023/11/14 11:36:20;;;;;;;116.18;109.97;;;15.40;99.90;;;;;;4993810;28;20034;-74
2023/11/14 11:38:53;;;;;;;122.00;115.40;;;15.40;99.90;;;;;;4984436;28;20030;-73
2023/11/14 11:41:20;;;;;;;131.60;124.80;;;15.40;99.90;;;;;;4995352;28;20042;-73
2023/11/14 11:43:46;;;;;;;135.50;128.25;;;15.40;99.90;;;;;;4994609;28;20372;-73
2023/11/14 11:46:50;;;;;;;133.40;125.50;;;15.40;99.90;;;;;;4994373;28;20046;-73
2023/11/14 11:49:22;;;;;;;117.72;111.22;;;15.40;99.90;;;;;;4972971;28;20035;-73
2023/11/14 11:51:48;;;;;;;129.73;122.63;;;15.40;99.90;;;;;;4963041;28;20045;-73
2023/11/14 11:54:31;;;;;;;142.65;134.43;;;15.40;99.90;;;;;;4958659;28;20054;-73
2023/11/14 11:57:03;;;;;;;145.80;138.18;;;15.40;99.90;;;;;;4967009;28;20147;-73
2023/11/14 11:59:29;;;;;;;193.98;183.68;;;15.40;99.90;;;;;;4970642;28;20049;-73
2023/11/14 12:01:57;;;;;;;154.57;146.23;;;15.40;99.90;;;;;;4972209;28;20042;-73
2023/11/14 12:04:23;;;;;;;159.30;151.05;;;15.50;99.90;;;;;;4966718;28;20424;-73
2023/11/14 12:06:49;;;;;;;161.23;152.45;;;15.50;99.90;;;;;;4971951;28;20059;-73
2023/11/14 12:09:15;;;;;;;211.07;200.18;;;15.50;99.90;;;;;;4972542;28;20043;-72
2023/11/14 12:11:41;;;;;;;171.13;162.15;;;15.60;99.90;;;;;;4980816;28;20042;-73
2023/11/14 12:14:07;;;;;;;162.02;153.40;;;15.60;99.90;;;;;;4972776;28;20043;-73
2023/11/14 12:16:36;;;;;;;192.80;182.50;;;15.70;99.90;;;;;;4962029;28;20042;-72